ADDS METAR Data INFO
IDs: Format: Raw Decoded Include TAF

Data at: 2050 UTC 24 Jun 2018

KMRF 241956Z AUTO 25015G21KT 10SM CLR 36/06 A3000 RMK AO2 SLP083 T03560061 $
KMRF 241856Z AUTO 10SM CLR 34/06 A3002 RMK AO2 SLP090 T03440061 $
KMRF 241756Z AUTO 27015G23KT 10SM CLR 34/07 RMK AO2 SLPNO 6//// T03440072 10344 20156 $
KMRF 241656Z AUTO 29014KT 10SM 33/07 A3003 RMK AO2 SLPNO T03280067 $
KMRF 241556Z AUTO 27015KT 10SM FEW001 32/08 A3003 RMK AO2 SLP097 T03170078 $
KMRF 241456Z AUTO 28016KT 10SM CLR 29/08 A3004 RMK AO2 SLP096 6//// T02940083 51006 $
KMRF 241356Z AUTO 21004KT 10SM CLR 25/10 A3003 RMK AO2 SLP096 T02500100 $
KMRF 241256Z AUTO 05003KT 10SM CLR 20/11 A3002 RMK AO2 SLP093 T02000106 $
KMRF 241156Z AUTO 00000KT 10SM CLR 16/09 A3001 RMK AO2 SLP094 6//// 7//// T01560094 10244 20156 $
KMRF 241056Z AUTO 36005KT 10SM CLR 16/09 A3000 RMK AO2 SLP088 T01610094 $
KMRF 240956Z AUTO 32004KT 10SM CLR 17/09 A2999 RMK AO2 SLP085 T01670094 $
KMRF 240856Z AUTO 32006KT 10SM CLR 17/09 RMK AO2 SLPNO 6//// T01720089 $
KMRF 240656Z AUTO 14005KT 10SM CLR 23/09 A2997 RMK AO2 SLP070 T02280089 403780161 $
KMRF 240556Z AUTO 12007KT 10SM CLR 24/01 A2996 RMK AO2 SLP066 6//// T02390006 10367 20211 $
KMRF 240456Z AUTO 10SM RMK AO2 SLPNO FZRANO $
KMRF 240356Z AUTO 35006KT 10SM CLR 22/00 A2992 RMK AO2 SLP061 T02220000 $
KMRF 240328Z AUTO 30004KT 10SM FEW001 24/M01 A2992 RMK AO2 $
KMRF 240256Z AUTO 25005KT 10SM CLR 27/M04 A2992 RMK AO2 SLP057 6//// T02671039 53004 $
KMRF 240156Z AUTO 23006KT 10SM CLR 30/M03 A2991 RMK AO2 SLP054 T03001028 $
KMRF 240056Z AUTO 25006KT 10SM CLR 36/M06 A2990 RMK AO2 SLP050 T03561061 $
KMRF 232356Z AUTO 18007KT 10SM CLR 37/M06 A2990 RMK AO2 SLP054 6//// T03671056 10378 20344 $
KMRF 232256Z AUTO 13004KT 10SM CLR 37/M05 A2992 RMK AO2 SLP058 T03671050 $
KMRF 232156Z AUTO 21007KT 180V260 10SM CLR 37/M04 A2993 RMK AO2 SLP062 T03671039 $
KMRF 232056Z AUTO 10SM CLR 37/M02 RMK AO2 SLPNO 6//// T03721017 $
KMRF 231956Z AUTO 25010G14KT 220V290 10SM 37/M01 A2996 RMK AO2 SLP071 T03671006 $
KMRF 231856Z AUTO 10SM CLR 36/04 A2998 RMK AO2 SLP078 T03610039 $
KMRF 231756Z AUTO 27012G25KT 10SM CLR 35/05 A3000 RMK AO2 SLP083 6//// T03500050 10350 20167 57007 $
KMRF 231656Z AUTO 25011KT 10SM CLR 34/03 A3001 RMK AO2 SLP087 T03390033 $
KMRF 231556Z AUTO 18010G14KT 10SM 31/14 A3001 RMK AO2 SLP090 T03110144 $
KMRF 231456Z AUTO 17009KT 10SM CLR 28/15 A3002 RMK AO2 SLPNO 6//// T02780150 $
KMRF 231356Z AUTO 10SM FEW001 24/16 RMK AO2 SLPNO T02440161 $
KMRF 231256Z AUTO 00000KT 10SM CLR 20/16 RMK AO2 SLPNO T02000161 $
KMRF 231156Z AUTO 36004KT 10SM CLR 17/14 A3000 RMK AO2 SLP092 6//// 7//// T01670139 10217 20161 $
KMRF 231056Z AUTO 33006KT 10SM CLR 17/14 A2999 RMK AO2 SLP084 T01720139 TSNO $
KMRF 230956Z AUTO 03003KT 10SM CLR 17/14 A2997 RMK AO2 SLP079 T01720139 $
KMRF 230856Z AUTO 15004KT 10SM CLR 18/13 RMK AO2 SLPNO 6//// T01780133 $